Terminal Aerodrome Forecast
Issued by NWS Riverton, WY

Home | Current Version | Previous Version | Text Only | Print | Product List | Glossary On
Versions: 1 2 3 4 5 6 7 8 9 10 11 12 13 14
000
FTUS45 KRIW 251200 AAA
TAFRIW
TAF AMD
KRIW 251255Z 2513/2612 03014G24KT 1 1/2SM -SN OVC015
      TEMPO 2513/2517 02020G30KT 3/4SM -SN BLSN OVC008
     FM252200 36021G30KT 2SM -SN OVC020
     FM260700 35011KT 6SM -SN SCT020 OVC040=

USA.gov is the U.S. government's official web portal to all federal, state and local government web resources and services.